Terminal Aerodrome Forecast
Issued by NWS Rapid City, SD

Home | Current Version | Previous Version | Text Only | Print | Product List | Glossary Off
Versions: 1 2 3 4 5 6 7 8 9 10 11 12 13 14 15 16 17 18 19

000
FTUS43 KUNR 231600 AAA
TAFRAP
TAF AMD
KRAP 231602Z 2316/2412 32030G44KT P6SM SKC
     FM231900 32035G47KT P6SM SCT040
     FM240000 33026G36KT P6SM SCT120
     FM240300 33014KT P6SM SCT025=

USA.gov is the U.S. government's official web portal to all federal, state and local government web resources and services.